sensor_id;sensor_type;location;lat;lon;timestamp;P1;durP1;ratioP1;P2;durP2;ratioP2
38843;SDS011;24596;48.080;8.362;2023-03-05T00:02:08;37.00;;;15.80;;
38843;SDS011;24596;48.080;8.362;2023-03-05T00:04:34;39.92;;;17.00;;
38843;SDS011;24596;48.080;8.362;2023-03-05T00:06:59;34.75;;;15.77;;
38843;SDS011;24596;48.080;8.362;2023-03-05T00:09:24;40.70;;;17.45;;
38843;SDS011;24596;48.080;8.362;2023-03-05T00:11:49;38.17;;;16.98;;
38843;SDS011;24596;48.080;8.362;2023-03-05T00:14:15;41.25;;;17.13;;
38843;SDS011;24596;48.080;8.362;2023-03-05T00:16:40;39.83;;;16.75;;
38843;SDS011;24596;48.080;8.362;2023-03-05T00:19:05;42.35;;;17.05;;
38843;SDS011;24596;48.080;8.362;2023-03-05T00:21:32;37.35;;;15.55;;
38843;SDS011;24596;48.080;8.362;2023-03-05T00:23:58;42.20;;;17.17;;
38843;SDS011;24596;48.080;8.362;2023-03-05T00:26:25;42.42;;;16.63;;
38843;SDS011;24596;48.080;8.362;2023-03-05T00:28:51;36.88;;;15.95;;
38843;SDS011;24596;48.080;8.362;2023-03-05T00:31:18;40.58;;;17.08;;
38843;SDS011;24596;48.080;8.362;2023-03-05T00:33:43;38.20;;;16.40;;
38843;SDS011;24596;48.080;8.362;2023-03-05T00:36:09;34.40;;;15.32;;
38843;SDS011;24596;48.080;8.362;2023-03-05T00:38:34;38.47;;;15.75;;
38843;SDS011;24596;48.080;8.362;2023-03-05T00:41:00;30.80;;;14.55;;
38843;SDS011;24596;48.080;8.362;2023-03-05T00:43:25;36.03;;;14.27;;
38843;SDS011;24596;48.080;8.362;2023-03-05T00:45:50;39.17;;;15.15;;
38843;SDS011;24596;48.080;8.362;2023-03-05T00:48:16;33.60;;;15.35;;
38843;SDS011;24596;48.080;8.362;2023-03-05T00:50:41;36.47;;;14.98;;
38843;SDS011;24596;48.080;8.362;2023-03-05T00:53:06;34.63;;;14.80;;
38843;SDS011;24596;48.080;8.362;2023-03-05T00:55:32;33.33;;;14.57;;
38843;SDS011;24596;48.080;8.362;2023-03-05T00:57:57;38.25;;;14.45;;
38843;SDS011;24596;48.080;8.362;2023-03-05T01:00:22;35.45;;;14.05;;
38843;SDS011;24596;48.080;8.362;2023-03-05T01:02:47;31.67;;;14.80;;
38843;SDS011;24596;48.080;8.362;2023-03-05T01:05:13;40.15;;;15.43;;
38843;SDS011;24596;48.080;8.362;2023-03-05T01:07:39;33.13;;;14.30;;
38843;SDS011;24596;48.080;8.362;2023-03-05T01:10:04;32.03;;;13.98;;
38843;SDS011;24596;48.080;8.362;2023-03-05T01:12:30;36.00;;;14.25;;
38843;SDS011;24596;48.080;8.362;2023-03-05T01:14:55;33.00;;;14.45;;
38843;SDS011;24596;48.080;8.362;2023-03-05T01:17:20;31.33;;;13.85;;
38843;SDS011;24596;48.080;8.362;2023-03-05T01:19:46;30.50;;;13.57;;
38843;SDS011;24596;48.080;8.362;2023-03-05T01:22:11;33.90;;;13.45;;
38843;SDS011;24596;48.080;8.362;2023-03-05T01:24:36;31.88;;;13.77;;
38843;SDS011;24596;48.080;8.362;2023-03-05T01:27:01;32.95;;;12.25;;
38843;SDS011;24596;48.080;8.362;2023-03-05T01:29:27;35.70;;;12.50;;
38843;SDS011;24596;48.080;8.362;2023-03-05T01:31:52;35.20;;;12.65;;
38843;SDS011;24596;48.080;8.362;2023-03-05T01:34:18;30.92;;;12.93;;
38843;SDS011;24596;48.080;8.362;2023-03-05T01:36:43;27.20;;;12.55;;
38843;SDS011;24596;48.080;8.362;2023-03-05T01:39:08;31.27;;;12.40;;
38843;SDS011;24596;48.080;8.362;2023-03-05T01:41:34;31.58;;;13.52;;
38843;SDS011;24596;48.080;8.362;2023-03-05T01:43:59;24.33;;;10.93;;
38843;SDS011;24596;48.080;8.362;2023-03-05T01:46:26;30.40;;;12.18;;
38843;SDS011;24596;48.080;8.362;2023-03-05T01:51:25;30.60;;;12.77;;
38843;SDS011;24596;48.080;8.362;2023-03-05T01:53:51;30.05;;;12.07;;
38843;SDS011;24596;48.080;8.362;2023-03-05T01:56:17;28.73;;;11.23;;
38843;SDS011;24596;48.080;8.362;2023-03-05T01:58:42;21.70;;;10.25;;
38843;SDS011;24596;48.080;8.362;2023-03-05T02:01:08;24.33;;;11.43;;
38843;SDS011;24596;48.080;8.362;2023-03-05T02:03:33;25.45;;;11.00;;
38843;SDS011;24596;48.080;8.362;2023-03-05T02:05:59;27.17;;;10.52;;
38843;SDS011;24596;48.080;8.362;2023-03-05T02:08:24;26.95;;;11.10;;
38843;SDS011;24596;48.080;8.362;2023-03-05T02:10:51;27.98;;;11.32;;
38843;SDS011;24596;48.080;8.362;2023-03-05T02:13:21;25.73;;;11.50;;
38843;SDS011;24596;48.080;8.362;2023-03-05T02:15:47;29.15;;;11.27;;
38843;SDS011;24596;48.080;8.362;2023-03-05T02:20:42;26.13;;;10.98;;
38843;SDS011;24596;48.080;8.362;2023-03-05T02:23:08;24.75;;;10.50;;
38843;SDS011;24596;48.080;8.362;2023-03-05T02:25:33;27.67;;;11.00;;
38843;SDS011;24596;48.080;8.362;2023-03-05T02:28:01;25.67;;;10.70;;
38843;SDS011;24596;48.080;8.362;2023-03-05T02:30:27;29.65;;;10.95;;
38843;SDS011;24596;48.080;8.362;2023-03-05T02:32:52;28.10;;;10.75;;
38843;SDS011;24596;48.080;8.362;2023-03-05T02:35:18;26.75;;;10.90;;
38843;SDS011;24596;48.080;8.362;2023-03-05T02:37:43;24.20;;;11.55;;
38843;SDS011;24596;48.080;8.362;2023-03-05T02:40:09;23.15;;;10.68;;
38843;SDS011;24596;48.080;8.362;2023-03-05T02:42:35;23.65;;;10.70;;
38843;SDS011;24596;48.080;8.362;2023-03-05T02:45:00;27.65;;;10.73;;
38843;SDS011;24596;48.080;8.362;2023-03-05T02:47:26;23.25;;;11.30;;
38843;SDS011;24596;48.080;8.362;2023-03-05T02:49:51;23.90;;;12.30;;
38843;SDS011;24596;48.080;8.362;2023-03-05T02:52:16;26.80;;;11.98;;
38843;SDS011;24596;48.080;8.362;2023-03-05T02:54:42;23.00;;;10.63;;
38843;SDS011;24596;48.080;8.362;2023-03-05T02:57:07;24.08;;;9.75;;
38843;SDS011;24596;48.080;8.362;2023-03-05T02:59:32;24.33;;;10.45;;
38843;SDS011;24596;48.080;8.362;2023-03-05T03:01:57;25.42;;;10.38;;
38843;SDS011;24596;48.080;8.362;2023-03-05T03:04:23;28.17;;;11.30;;
38843;SDS011;24596;48.080;8.362;2023-03-05T03:06:48;22.33;;;10.75;;
38843;SDS011;24596;48.080;8.362;2023-03-05T03:09:13;28.13;;;10.80;;
38843;SDS011;24596;48.080;8.362;2023-03-05T03:11:38;22.63;;;9.45;;
38843;SDS011;24596;48.080;8.362;2023-03-05T03:14:03;22.23;;;9.60;;
38843;SDS011;24596;48.080;8.362;2023-03-05T03:16:29;24.65;;;9.77;;
38843;SDS011;24596;48.080;8.362;2023-03-05T03:18:54;27.92;;;10.88;;
38843;SDS011;24596;48.080;8.362;2023-03-05T03:21:20;23.30;;;10.75;;
38843;SDS011;24596;48.080;8.362;2023-03-05T03:23:46;22.80;;;10.20;;
38843;SDS011;24596;48.080;8.362;2023-03-05T03:26:11;25.90;;;10.25;;
38843;SDS011;24596;48.080;8.362;2023-03-05T03:28:36;23.40;;;9.75;;
38843;SDS011;24596;48.080;8.362;2023-03-05T03:31:01;21.75;;;10.15;;
38843;SDS011;24596;48.080;8.362;2023-03-05T03:33:27;25.23;;;10.93;;
38843;SDS011;24596;48.080;8.362;2023-03-05T03:35:52;26.30;;;9.07;;
38843;SDS011;24596;48.080;8.362;2023-03-05T03:38:17;24.67;;;9.15;;
38843;SDS011;24596;48.080;8.362;2023-03-05T03:40:42;19.52;;;9.25;;
38843;SDS011;24596;48.080;8.362;2023-03-05T03:43:07;21.92;;;9.02;;
38843;SDS011;24596;48.080;8.362;2023-03-05T03:45:33;20.45;;;8.55;;
38843;SDS011;24596;48.080;8.362;2023-03-05T03:47:58;22.45;;;9.63;;
38843;SDS011;24596;48.080;8.362;2023-03-05T03:50:23;18.83;;;9.13;;
38843;SDS011;24596;48.080;8.362;2023-03-05T03:52:50;21.27;;;9.23;;
38843;SDS011;24596;48.080;8.362;2023-03-05T03:55:15;22.88;;;9.40;;
38843;SDS011;24596;48.080;8.362;2023-03-05T03:57:40;24.88;;;9.48;;
38843;SDS011;24596;48.080;8.362;2023-03-05T04:00:07;26.55;;;10.32;;
38843;SDS011;24596;48.080;8.362;2023-03-05T04:02:34;20.13;;;9.27;;
38843;SDS011;24596;48.080;8.362;2023-03-05T04:04:59;20.40;;;9.13;;
38843;SDS011;24596;48.080;8.362;2023-03-05T04:07:24;20.50;;;9.63;;
38843;SDS011;24596;48.080;8.362;2023-03-05T04:09:49;21.42;;;9.75;;
38843;SDS011;24596;48.080;8.362;2023-03-05T04:12:15;23.55;;;8.60;;
38843;SDS011;24596;48.080;8.362;2023-03-05T04:14:42;25.00;;;8.77;;
38843;SDS011;24596;48.080;8.362;2023-03-05T04:17:07;20.88;;;9.07;;
38843;SDS011;24596;48.080;8.362;2023-03-05T04:19:32;24.92;;;10.10;;
38843;SDS011;24596;48.080;8.362;2023-03-05T04:21:58;21.52;;;9.90;;
38843;SDS011;24596;48.080;8.362;2023-03-05T04:24:23;19.35;;;9.30;;
38843;SDS011;24596;48.080;8.362;2023-03-05T04:26:48;23.02;;;10.35;;
38843;SDS011;24596;48.080;8.362;2023-03-05T04:29:13;21.73;;;9.95;;
38843;SDS011;24596;48.080;8.362;2023-03-05T04:31:39;22.08;;;9.93;;
38843;SDS011;24596;48.080;8.362;2023-03-05T04:34:04;22.77;;;10.95;;
38843;SDS011;24596;48.080;8.362;2023-03-05T04:36:29;21.35;;;10.35;;
38843;SDS011;24596;48.080;8.362;2023-03-05T04:38:54;21.00;;;9.75;;
38843;SDS011;24596;48.080;8.362;2023-03-05T04:41:20;23.00;;;9.77;;
38843;SDS011;24596;48.080;8.362;2023-03-05T04:43:48;19.00;;;9.25;;
38843;SDS011;24596;48.080;8.362;2023-03-05T04:46:13;19.52;;;8.40;;
38843;SDS011;24596;48.080;8.362;2023-03-05T04:48:38;17.77;;;8.68;;
38843;SDS011;24596;48.080;8.362;2023-03-05T04:51:04;18.00;;;9.10;;
38843;SDS011;24596;48.080;8.362;2023-03-05T04:53:29;21.35;;;9.52;;
38843;SDS011;24596;48.080;8.362;2023-03-05T04:55:54;19.10;;;9.00;;
38843;SDS011;24596;48.080;8.362;2023-03-05T04:58:20;20.23;;;8.60;;
38843;SDS011;24596;48.080;8.362;2023-03-05T05:00:45;16.05;;;7.85;;
38843;SDS011;24596;48.080;8.362;2023-03-05T05:03:10;18.50;;;9.40;;
38843;SDS011;24596;48.080;8.362;2023-03-05T05:05:36;16.23;;;8.07;;
38843;SDS011;24596;48.080;8.362;2023-03-05T05:08:01;16.95;;;7.88;;
38843;SDS011;24596;48.080;8.362;2023-03-05T05:10:27;19.23;;;8.05;;
38843;SDS011;24596;48.080;8.362;2023-03-05T05:12:52;15.88;;;8.07;;
38843;SDS011;24596;48.080;8.362;2023-03-05T05:15:17;17.92;;;9.27;;
38843;SDS011;24596;48.080;8.362;2023-03-05T05:17:42;18.05;;;8.13;;
38843;SDS011;24596;48.080;8.362;2023-03-05T05:20:09;16.23;;;8.02;;
38843;SDS011;24596;48.080;8.362;2023-03-05T05:22:35;17.98;;;8.05;;
38843;SDS011;24596;48.080;8.362;2023-03-05T05:25:00;19.67;;;9.40;;
38843;SDS011;24596;48.080;8.362;2023-03-05T05:27:26;18.05;;;8.93;;
38843;SDS011;24596;48.080;8.362;2023-03-05T05:29:51;17.30;;;8.45;;
38843;SDS011;24596;48.080;8.362;2023-03-05T05:32:17;18.60;;;8.20;;
38843;SDS011;24596;48.080;8.362;2023-03-05T05:34:42;19.67;;;8.68;;
38843;SDS011;24596;48.080;8.362;2023-03-05T05:37:07;18.50;;;8.63;;
38843;SDS011;24596;48.080;8.362;2023-03-05T05:39:33;19.52;;;9.57;;
38843;SDS011;24596;48.080;8.362;2023-03-05T05:41:58;20.50;;;9.13;;
38843;SDS011;24596;48.080;8.362;2023-03-05T05:44:24;18.65;;;9.20;;
38843;SDS011;24596;48.080;8.362;2023-03-05T05:46:49;22.58;;;8.65;;
38843;SDS011;24596;48.080;8.362;2023-03-05T05:49:14;24.20;;;10.13;;
38843;SDS011;24596;48.080;8.362;2023-03-05T05:51:39;19.27;;;9.00;;
38843;SDS011;24596;48.080;8.362;2023-03-05T05:54:05;18.75;;;8.60;;
38843;SDS011;24596;48.080;8.362;2023-03-05T05:56:30;18.05;;;7.95;;
38843;SDS011;24596;48.080;8.362;2023-03-05T05:58:55;21.45;;;8.77;;
38843;SDS011;24596;48.080;8.362;2023-03-05T06:03:46;16.70;;;8.48;;
38843;SDS011;24596;48.080;8.362;2023-03-05T06:06:12;17.50;;;8.35;;
38843;SDS011;24596;48.080;8.362;2023-03-05T06:08:37;18.42;;;7.95;;
38843;SDS011;24596;48.080;8.362;2023-03-05T06:11:02;22.65;;;8.00;;
38843;SDS011;24596;48.080;8.362;2023-03-05T06:13:28;15.90;;;7.85;;
38843;SDS011;24596;48.080;8.362;2023-03-05T06:15:56;18.02;;;8.98;;
38843;SDS011;24596;48.080;8.362;2023-03-05T06:18:22;15.52;;;7.68;;
38843;SDS011;24596;48.080;8.362;2023-03-05T06:20:57;18.08;;;7.50;;
38843;SDS011;24596;48.080;8.362;2023-03-05T06:23:23;20.27;;;8.20;;
38843;SDS011;24596;48.080;8.362;2023-03-05T06:25:48;18.35;;;8.93;;
38843;SDS011;24596;48.080;8.362;2023-03-05T06:28:13;17.40;;;8.63;;
38843;SDS011;24596;48.080;8.362;2023-03-05T06:30:38;19.15;;;8.63;;
38843;SDS011;24596;48.080;8.362;2023-03-05T06:33:04;18.95;;;8.02;;
38843;SDS011;24596;48.080;8.362;2023-03-05T06:35:30;16.60;;;7.88;;
38843;SDS011;24596;48.080;8.362;2023-03-05T06:37:56;17.48;;;7.55;;
38843;SDS011;24596;48.080;8.362;2023-03-05T06:40:21;17.98;;;8.00;;
38843;SDS011;24596;48.080;8.362;2023-03-05T06:42:47;18.05;;;8.30;;
38843;SDS011;24596;48.080;8.362;2023-03-05T06:45:12;15.38;;;7.82;;
38843;SDS011;24596;48.080;8.362;2023-03-05T06:47:37;16.13;;;8.10;;
38843;SDS011;24596;48.080;8.362;2023-03-05T06:50:02;17.85;;;8.68;;
38843;SDS011;24596;48.080;8.362;2023-03-05T06:52:28;20.02;;;9.77;;
38843;SDS011;24596;48.080;8.362;2023-03-05T06:54:53;17.88;;;8.52;;
38843;SDS011;24596;48.080;8.362;2023-03-05T06:57:20;18.20;;;8.43;;
38843;SDS011;24596;48.080;8.362;2023-03-05T06:59:45;14.52;;;7.13;;
38843;SDS011;24596;48.080;8.362;2023-03-05T07:02:10;18.85;;;8.43;;
38843;SDS011;24596;48.080;8.362;2023-03-05T07:04:37;17.85;;;9.18;;
38843;SDS011;24596;48.080;8.362;2023-03-05T07:07:02;18.10;;;8.35;;
38843;SDS011;24596;48.080;8.362;2023-03-05T07:09:28;16.15;;;8.73;;
38843;SDS011;24596;48.080;8.362;2023-03-05T07:11:54;14.32;;;7.20;;
38843;SDS011;24596;48.080;8.362;2023-03-05T07:14:19;15.70;;;7.78;;
38843;SDS011;24596;48.080;8.362;2023-03-05T07:16:45;15.32;;;7.30;;
38843;SDS011;24596;48.080;8.362;2023-03-05T07:19:10;18.15;;;7.80;;
38843;SDS011;24596;48.080;8.362;2023-03-05T07:21:35;19.33;;;8.73;;
38843;SDS011;24596;48.080;8.362;2023-03-05T07:24:01;19.85;;;8.38;;
38843;SDS011;24596;48.080;8.362;2023-03-05T07:26:26;19.15;;;8.50;;
38843;SDS011;24596;48.080;8.362;2023-03-05T07:28:52;25.50;;;11.93;;
38843;SDS011;24596;48.080;8.362;2023-03-05T07:31:18;26.60;;;11.75;;
38843;SDS011;24596;48.080;8.362;2023-03-05T07:33:44;27.25;;;11.45;;
38843;SDS011;24596;48.080;8.362;2023-03-05T07:36:10;23.05;;;10.85;;
38843;SDS011;24596;48.080;8.362;2023-03-05T07:38:36;21.40;;;10.57;;
38843;SDS011;24596;48.080;8.362;2023-03-05T07:41:05;21.77;;;9.25;;
38843;SDS011;24596;48.080;8.362;2023-03-05T07:43:31;19.73;;;9.00;;
38843;SDS011;24596;48.080;8.362;2023-03-05T07:45:56;24.33;;;10.38;;
38843;SDS011;24596;48.080;8.362;2023-03-05T07:48:22;23.10;;;12.02;;
38843;SDS011;24596;48.080;8.362;2023-03-05T07:50:47;28.17;;;12.50;;
38843;SDS011;24596;48.080;8.362;2023-03-05T07:53:13;21.00;;;10.63;;
38843;SDS011;24596;48.080;8.362;2023-03-05T07:55:42;23.58;;;10.88;;
38843;SDS011;24596;48.080;8.362;2023-03-05T07:58:08;19.92;;;10.13;;
38843;SDS011;24596;48.080;8.362;2023-03-05T08:00:33;24.08;;;10.00;;
38843;SDS011;24596;48.080;8.362;2023-03-05T08:02:58;18.65;;;9.10;;
38843;SDS011;24596;48.080;8.362;2023-03-05T08:05:23;20.05;;;9.57;;
38843;SDS011;24596;48.080;8.362;2023-03-05T08:07:48;24.63;;;10.07;;
38843;SDS011;24596;48.080;8.362;2023-03-05T08:10:14;26.23;;;11.35;;
38843;SDS011;24596;48.080;8.362;2023-03-05T08:12:39;19.80;;;10.75;;
38843;SDS011;24596;48.080;8.362;2023-03-05T08:15:04;26.10;;;11.73;;
38843;SDS011;24596;48.080;8.362;2023-03-05T08:17:30;27.23;;;12.75;;
38843;SDS011;24596;48.080;8.362;2023-03-05T08:19:55;29.38;;;13.60;;
38843;SDS011;24596;48.080;8.362;2023-03-05T08:22:23;34.58;;;14.10;;
38843;SDS011;24596;48.080;8.362;2023-03-05T08:24:48;30.17;;;14.50;;
38843;SDS011;24596;48.080;8.362;2023-03-05T08:27:16;30.73;;;14.40;;
38843;SDS011;24596;48.080;8.362;2023-03-05T08:29:41;32.08;;;15.15;;
38843;SDS011;24596;48.080;8.362;2023-03-05T08:32:06;31.48;;;14.93;;
38843;SDS011;24596;48.080;8.362;2023-03-05T08:34:31;31.70;;;14.05;;
38843;SDS011;24596;48.080;8.362;2023-03-05T08:36:56;27.30;;;12.27;;
38843;SDS011;24596;48.080;8.362;2023-03-05T08:39:22;27.70;;;13.52;;
38843;SDS011;24596;48.080;8.362;2023-03-05T08:41:47;28.40;;;13.50;;
38843;SDS011;24596;48.080;8.362;2023-03-05T08:44:12;29.55;;;12.90;;
38843;SDS011;24596;48.080;8.362;2023-03-05T08:46:38;30.73;;;13.48;;
38843;SDS011;24596;48.080;8.362;2023-03-05T08:49:03;36.40;;;16.45;;
38843;SDS011;24596;48.080;8.362;2023-03-05T08:51:29;36.00;;;17.95;;
38843;SDS011;24596;48.080;8.362;2023-03-05T08:53:54;29.42;;;14.45;;
38843;SDS011;24596;48.080;8.362;2023-03-05T08:56:20;32.10;;;16.35;;
38843;SDS011;24596;48.080;8.362;2023-03-05T08:58:45;34.30;;;16.85;;
38843;SDS011;24596;48.080;8.362;2023-03-05T09:01:12;32.40;;;14.85;;
38843;SDS011;24596;48.080;8.362;2023-03-05T09:03:37;32.33;;;15.50;;
38843;SDS011;24596;48.080;8.362;2023-03-05T09:06:04;30.42;;;13.88;;
38843;SDS011;24596;48.080;8.362;2023-03-05T09:08:30;27.52;;;13.02;;
38843;SDS011;24596;48.080;8.362;2023-03-05T09:10:55;31.00;;;13.75;;
38843;SDS011;24596;48.080;8.362;2023-03-05T09:13:21;28.30;;;12.88;;
38843;SDS011;24596;48.080;8.362;2023-03-05T09:15:52;26.30;;;13.45;;
38843;SDS011;24596;48.080;8.362;2023-03-05T09:18:17;29.77;;;14.13;;
38843;SDS011;24596;48.080;8.362;2023-03-05T09:20:43;26.90;;;12.38;;
38843;SDS011;24596;48.080;8.362;2023-03-05T09:23:08;30.02;;;13.25;;
38843;SDS011;24596;48.080;8.362;2023-03-05T09:25:34;27.65;;;12.48;;
38843;SDS011;24596;48.080;8.362;2023-03-05T09:27:59;27.50;;;12.60;;
38843;SDS011;24596;48.080;8.362;2023-03-05T09:30:24;27.70;;;13.05;;
38843;SDS011;24596;48.080;8.362;2023-03-05T09:32:49;30.85;;;13.32;;
38843;SDS011;24596;48.080;8.362;2023-03-05T09:35:15;26.48;;;13.15;;
38843;SDS011;24596;48.080;8.362;2023-03-05T09:37:40;27.13;;;12.35;;
38843;SDS011;24596;48.080;8.362;2023-03-05T09:40:05;25.90;;;12.38;;
38843;SDS011;24596;48.080;8.362;2023-03-05T09:50:33;19.88;;;10.23;;
38843;SDS011;24596;48.080;8.362;2023-03-05T09:53:20;23.88;;;11.13;;
38843;SDS011;24596;48.080;8.362;2023-03-05T09:55:45;28.30;;;14.18;;
38843;SDS011;24596;48.080;8.362;2023-03-05T09:58:13;22.13;;;11.52;;
38843;SDS011;24596;48.080;8.362;2023-03-05T10:00:42;26.02;;;11.55;;
38843;SDS011;24596;48.080;8.362;2023-03-05T10:03:11;24.38;;;11.57;;
38843;SDS011;24596;48.080;8.362;2023-03-05T10:08:07;22.95;;;11.00;;
38843;SDS011;24596;48.080;8.362;2023-03-05T10:13:01;19.90;;;10.40;;
38843;SDS011;24596;48.080;8.362;2023-03-05T10:15:37;21.38;;;10.60;;
38843;SDS011;24596;48.080;8.362;2023-03-05T10:20:58;21.15;;;10.50;;
38843;SDS011;24596;48.080;8.362;2023-03-05T10:26:04;20.35;;;9.90;;
38843;SDS011;24596;48.080;8.362;2023-03-05T10:33:47;14.60;;;6.72;;
38843;SDS011;24596;48.080;8.362;2023-03-05T10:36:19;13.80;;;6.78;;
38843;SDS011;24596;48.080;8.362;2023-03-05T10:44:18;19.65;;;8.38;;
38843;SDS011;24596;48.080;8.362;2023-03-05T10:46:45;14.15;;;6.97;;
38843;SDS011;24596;48.080;8.362;2023-03-05T10:49:19;17.67;;;6.97;;
38843;SDS011;24596;48.080;8.362;2023-03-05T10:51:51;18.63;;;10.20;;
38843;SDS011;24596;48.080;8.362;2023-03-05T10:54:22;16.42;;;8.10;;
38843;SDS011;24596;48.080;8.362;2023-03-05T10:56:49;12.82;;;7.20;;
38843;SDS011;24596;48.080;8.362;2023-03-05T10:59:15;11.95;;;5.45;;
38843;SDS011;24596;48.080;8.362;2023-03-05T11:01:40;13.25;;;7.28;;
38843;SDS011;24596;48.080;8.362;2023-03-05T11:04:06;14.60;;;6.65;;
38843;SDS011;24596;48.080;8.362;2023-03-05T11:06:39;16.77;;;7.57;;
38843;SDS011;24596;48.080;8.362;2023-03-05T11:09:25;17.83;;;8.23;;
38843;SDS011;24596;48.080;8.362;2023-03-05T11:12:18;12.70;;;6.18;;
38843;SDS011;24596;48.080;8.362;2023-03-05T11:15:24;13.82;;;6.75;;
38843;SDS011;24596;48.080;8.362;2023-03-05T11:20:27;14.00;;;5.82;;
38843;SDS011;24596;48.080;8.362;2023-03-05T11:23:00;11.98;;;6.00;;
38843;SDS011;24596;48.080;8.362;2023-03-05T11:25:25;13.20;;;7.03;;
38843;SDS011;24596;48.080;8.362;2023-03-05T11:27:53;13.35;;;6.38;;
38843;SDS011;24596;48.080;8.362;2023-03-05T11:30:29;13.38;;;6.10;;
38843;SDS011;24596;48.080;8.362;2023-03-05T11:33:09;12.95;;;6.50;;
38843;SDS011;24596;48.080;8.362;2023-03-05T11:35:35;15.85;;;6.50;;
38843;SDS011;24596;48.080;8.362;2023-03-05T11:38:05;13.52;;;6.28;;
38843;SDS011;24596;48.080;8.362;2023-03-05T11:40:31;13.93;;;6.28;;
38843;SDS011;24596;48.080;8.362;2023-03-05T11:42:59;14.68;;;8.20;;
38843;SDS011;24596;48.080;8.362;2023-03-05T11:45:26;14.57;;;6.70;;
38843;SDS011;24596;48.080;8.362;2023-03-05T11:47:57;12.43;;;6.10;;
38843;SDS011;24596;48.080;8.362;2023-03-05T11:50:25;12.63;;;6.90;;
38843;SDS011;24596;48.080;8.362;2023-03-05T11:58:11;14.38;;;7.40;;
38843;SDS011;24596;48.080;8.362;2023-03-05T12:00:42;12.55;;;6.15;;
38843;SDS011;24596;48.080;8.362;2023-03-05T12:03:10;11.95;;;5.95;;
38843;SDS011;24596;48.080;8.362;2023-03-05T12:05:39;16.02;;;6.43;;
38843;SDS011;24596;48.080;8.362;2023-03-05T12:08:05;10.68;;;5.50;;
38843;SDS011;24596;48.080;8.362;2023-03-05T12:10:35;12.15;;;6.10;;
38843;SDS011;24596;48.080;8.362;2023-03-05T12:13:05;12.40;;;5.70;;
38843;SDS011;24596;48.080;8.362;2023-03-05T12:15:37;12.50;;;6.10;;
38843;SDS011;24596;48.080;8.362;2023-03-05T12:18:12;14.98;;;7.05;;
38843;SDS011;24596;48.080;8.362;2023-03-05T12:23:11;13.50;;;6.35;;
38843;SDS011;24596;48.080;8.362;2023-03-05T12:25:45;11.25;;;6.10;;
38843;SDS011;24596;48.080;8.362;2023-03-05T12:31:02;13.02;;;5.40;;
38843;SDS011;24596;48.080;8.362;2023-03-05T12:33:38;11.55;;;5.72;;
38843;SDS011;24596;48.080;8.362;2023-03-05T12:38:41;12.23;;;6.40;;
38843;SDS011;24596;48.080;8.362;2023-03-05T12:41:30;14.27;;;6.35;;
38843;SDS011;24596;48.080;8.362;2023-03-05T12:46:29;11.48;;;6.05;;
38843;SDS011;24596;48.080;8.362;2023-03-05T12:48:56;12.18;;;6.13;;
38843;SDS011;24596;48.080;8.362;2023-03-05T12:51:32;14.38;;;6.20;;
38843;SDS011;24596;48.080;8.362;2023-03-05T12:54:01;17.27;;;7.75;;
38843;SDS011;24596;48.080;8.362;2023-03-05T12:56:42;13.57;;;6.63;;
38843;SDS011;24596;48.080;8.362;2023-03-05T12:59:08;15.27;;;6.55;;
38843;SDS011;24596;48.080;8.362;2023-03-05T13:01:39;30.58;;;7.85;;
38843;SDS011;24596;48.080;8.362;2023-03-05T13:04:10;14.77;;;6.43;;
38843;SDS011;24596;48.080;8.362;2023-03-05T13:06:38;11.63;;;6.00;;
38843;SDS011;24596;48.080;8.362;2023-03-05T13:09:46;16.60;;;6.78;;
38843;SDS011;24596;48.080;8.362;2023-03-05T13:11:54;15.88;;;6.28;;
38843;SDS011;24596;48.080;8.362;2023-03-05T13:14:25;15.23;;;6.22;;
38843;SDS011;24596;48.080;8.362;2023-03-05T13:16:51;13.00;;;6.57;;
38843;SDS011;24596;48.080;8.362;2023-03-05T13:19:16;14.60;;;6.57;;
38843;SDS011;24596;48.080;8.362;2023-03-05T13:21:42;14.35;;;6.75;;
38843;SDS011;24596;48.080;8.362;2023-03-05T13:24:17;15.07;;;7.60;;
38843;SDS011;24596;48.080;8.362;2023-03-05T13:26:42;17.73;;;6.85;;
38843;SDS011;24596;48.080;8.362;2023-03-05T13:29:17;21.65;;;10.18;;
38843;SDS011;24596;48.080;8.362;2023-03-05T13:32:16;29.70;;;13.65;;
38843;SDS011;24596;48.080;8.362;2023-03-05T13:36:58;15.73;;;7.80;;
38843;SDS011;24596;48.080;8.362;2023-03-05T13:39:25;12.80;;;7.00;;
38843;SDS011;24596;48.080;8.362;2023-03-05T13:42:02;16.20;;;7.20;;
38843;SDS011;24596;48.080;8.362;2023-03-05T13:44:28;18.08;;;9.10;;
38843;SDS011;24596;48.080;8.362;2023-03-05T13:47:04;18.20;;;8.52;;
38843;SDS011;24596;48.080;8.362;2023-03-05T13:49:30;15.05;;;7.38;;
38843;SDS011;24596;48.080;8.362;2023-03-05T13:51:56;16.33;;;7.90;;
38843;SDS011;24596;48.080;8.362;2023-03-05T13:54:24;17.98;;;7.78;;
38843;SDS011;24596;48.080;8.362;2023-03-05T13:56:53;15.63;;;7.85;;
38843;SDS011;24596;48.080;8.362;2023-03-05T13:59:23;16.45;;;7.57;;
38843;SDS011;24596;48.080;8.362;2023-03-05T14:01:49;13.15;;;7.28;;
38843;SDS011;24596;48.080;8.362;2023-03-05T14:04:17;18.45;;;8.40;;
38843;SDS011;24596;48.080;8.362;2023-03-05T14:06:51;15.57;;;7.35;;
38843;SDS011;24596;48.080;8.362;2023-03-05T14:09:21;16.60;;;7.38;;
38843;SDS011;24596;48.080;8.362;2023-03-05T14:11:55;15.10;;;7.53;;
38843;SDS011;24596;48.080;8.362;2023-03-05T14:14:20;17.33;;;9.02;;
38843;SDS011;24596;48.080;8.362;2023-03-05T14:16:46;17.52;;;7.85;;
38843;SDS011;24596;48.080;8.362;2023-03-05T14:19:27;23.20;;;10.68;;
38843;SDS011;24596;48.080;8.362;2023-03-05T14:21:54;29.13;;;11.65;;
38843;SDS011;24596;48.080;8.362;2023-03-05T14:24:20;18.23;;;8.65;;
38843;SDS011;24596;48.080;8.362;2023-03-05T14:26:53;21.42;;;9.75;;
38843;SDS011;24596;48.080;8.362;2023-03-05T14:29:20;29.90;;;14.15;;
38843;SDS011;24596;48.080;8.362;2023-03-05T14:32:06;18.42;;;9.05;;
38843;SDS011;24596;48.080;8.362;2023-03-05T14:34:39;17.20;;;7.47;;
38843;SDS011;24596;48.080;8.362;2023-03-05T14:37:05;19.95;;;8.15;;
38843;SDS011;24596;48.080;8.362;2023-03-05T14:39:39;20.55;;;9.25;;
38843;SDS011;24596;48.080;8.362;2023-03-05T14:42:19;18.60;;;8.10;;
38843;SDS011;24596;48.080;8.362;2023-03-05T14:44:48;19.27;;;8.88;;
38843;SDS011;24596;48.080;8.362;2023-03-05T14:47:13;16.02;;;7.53;;
38843;SDS011;24596;48.080;8.362;2023-03-05T14:49:39;20.90;;;9.13;;
38843;SDS011;24596;48.080;8.362;2023-03-05T14:52:04;17.52;;;8.27;;
38843;SDS011;24596;48.080;8.362;2023-03-05T14:54:31;17.42;;;8.10;;
38843;SDS011;24596;48.080;8.362;2023-03-05T14:56:57;16.35;;;7.63;;
38843;SDS011;24596;48.080;8.362;2023-03-05T14:59:23;18.60;;;8.45;;
38843;SDS011;24596;48.080;8.362;2023-03-05T15:01:48;18.75;;;8.00;;
38843;SDS011;24596;48.080;8.362;2023-03-05T15:04:14;16.33;;;7.10;;
38843;SDS011;24596;48.080;8.362;2023-03-05T15:06:43;17.40;;;7.55;;
38843;SDS011;24596;48.080;8.362;2023-03-05T15:09:12;18.52;;;7.80;;
38843;SDS011;24596;48.080;8.362;2023-03-05T15:11:41;16.25;;;8.00;;
38843;SDS011;24596;48.080;8.362;2023-03-05T15:14:07;20.27;;;7.25;;
38843;SDS011;24596;48.080;8.362;2023-03-05T15:16:33;18.73;;;7.68;;
38843;SDS011;24596;48.080;8.362;2023-03-05T15:18:58;16.67;;;7.25;;
38843;SDS011;24596;48.080;8.362;2023-03-05T15:21:24;15.52;;;7.22;;
38843;SDS011;24596;48.080;8.362;2023-03-05T15:23:49;18.42;;;7.70;;
38843;SDS011;24596;48.080;8.362;2023-03-05T15:26:14;15.43;;;7.40;;